sensor_id;sensor_type;location;lat;lon;timestamp;pressure;altitude;pressure_sealevel;temperature;humidity
13124;BME280;6627;50.920;12.050;2024-02-28T00:00:34;98750.53;;;14.70;46.75
13124;BME280;6627;50.920;12.050;2024-02-28T00:03:03;99025.28;;;16.44;46.15
13124;BME280;6627;50.920;12.050;2024-02-28T00:05:33;98994.97;;;16.78;44.95
13124;BME280;6627;50.920;12.050;2024-02-28T00:08:01;98958.06;;;16.22;45.80
13124;BME280;6627;50.920;12.050;2024-02-28T00:10:32;98915.09;;;15.80;46.31
13124;BME280;6627;50.920;12.050;2024-02-28T00:13:01;98890.84;;;15.49;46.67
13124;BME280;6627;50.920;12.050;2024-02-28T00:15:28;98926.41;;;16.21;45.33
13124;BME280;6627;50.920;12.050;2024-02-28T00:17:56;98909.53;;;14.92;48.27
13124;BME280;6627;50.920;12.050;2024-02-28T00:20:24;98860.19;;;14.76;47.66
13124;BME280;6627;50.920;12.050;2024-02-28T00:22:53;98892.94;;;14.15;49.60
13124;BME280;6627;50.920;12.050;2024-02-28T00:25:21;99019.66;;;15.89;47.07
13124;BME280;6627;50.920;12.050;2024-02-28T00:27:52;99001.75;;;16.30;46.17
13124;BME280;6627;50.920;12.050;2024-02-28T00:30:22;98894.59;;;15.06;47.47
13124;BME280;6627;50.920;12.050;2024-02-28T00:32:52;99021.81;;;16.05;46.62
13124;BME280;6627;50.920;12.050;2024-02-28T00:35:23;98912.78;;;15.61;46.41
13124;BME280;6627;50.920;12.050;2024-02-28T00:37:50;98966.22;;;16.30;45.35
13124;BME280;6627;50.920;12.050;2024-02-28T00:40:17;98990.41;;;16.40;45.59
13124;BME280;6627;50.920;12.050;2024-02-28T00:42:45;98925.50;;;15.57;46.73
13124;BME280;6627;50.920;12.050;2024-02-28T00:45:14;98927.31;;;15.45;46.74
13124;BME280;6627;50.920;12.050;2024-02-28T00:48:01;98917.22;;;15.45;46.77
13124;BME280;6627;50.920;12.050;2024-02-28T00:50:31;98862.63;;;14.51;48.24
13124;BME280;6627;50.920;12.050;2024-02-28T00:53:01;98934.25;;;14.86;48.42
13124;BME280;6627;50.920;12.050;2024-02-28T00:55:31;99031.31;;;16.28;46.51
13124;BME280;6627;50.920;12.050;2024-02-28T00:58:02;99058.53;;;16.96;45.00
13124;BME280;6627;50.920;12.050;2024-02-28T01:00:30;98892.53;;;15.62;46.09
13124;BME280;6627;50.920;12.050;2024-02-28T01:02:58;98844.16;;;14.74;47.30
13124;BME280;6627;50.920;12.050;2024-02-28T01:05:25;98930.84;;;15.54;46.75
13124;BME280;6627;50.920;12.050;2024-02-28T01:07:52;98882.59;;;15.37;46.45
13124;BME280;6627;50.920;12.050;2024-02-28T01:10:23;98853.75;;;14.80;47.31
13124;BME280;6627;50.920;12.050;2024-02-28T01:12:51;98980.84;;;15.75;46.92
13124;BME280;6627;50.920;12.050;2024-02-28T01:15:21;99040.44;;;16.62;45.55
13124;BME280;6627;50.920;12.050;2024-02-28T01:17:51;99028.31;;;16.93;44.70
13124;BME280;6627;50.920;12.050;2024-02-28T01:20:18;98870.03;;;15.36;46.44
13124;BME280;6627;50.920;12.050;2024-02-28T01:22:45;98935.19;;;15.46;46.76
13124;BME280;6627;50.920;12.050;2024-02-28T01:25:13;98938.63;;;15.73;46.28
13124;BME280;6627;50.920;12.050;2024-02-28T01:27:41;98921.00;;;15.23;47.48
13124;BME280;6627;50.920;12.050;2024-02-28T01:30:10;98932.50;;;15.37;47.03
13124;BME280;6627;50.920;12.050;2024-02-28T01:32:38;98939.44;;;14.62;49.22
13124;BME280;6627;50.920;12.050;2024-02-28T01:35:10;98983.66;;;15.49;47.79
13124;BME280;6627;50.920;12.050;2024-02-28T01:37:39;98974.16;;;15.64;46.84
13124;BME280;6627;50.920;12.050;2024-02-28T01:40:11;99020.03;;;15.79;47.44
13124;BME280;6627;50.920;12.050;2024-02-28T01:42:38;99009.56;;;16.11;46.56
13124;BME280;6627;50.920;12.050;2024-02-28T01:45:06;98999.03;;;16.01;46.78
13124;BME280;6627;50.920;12.050;2024-02-28T01:47:35;98900.44;;;15.64;46.12
13124;BME280;6627;50.920;12.050;2024-02-28T01:50:04;98902.78;;;15.74;45.82
13124;BME280;6627;50.920;12.050;2024-02-28T01:52:33;98969.41;;;16.53;44.97
13124;BME280;6627;50.920;12.050;2024-02-28T01:55:05;98941.66;;;16.01;45.81
13124;BME280;6627;50.920;12.050;2024-02-28T01:57:34;98772.66;;;13.96;48.70
13124;BME280;6627;50.920;12.050;2024-02-28T02:00:07;99001.09;;;16.04;46.76
13124;BME280;6627;50.920;12.050;2024-02-28T02:02:37;98860.38;;;15.09;46.86
13124;BME280;6627;50.920;12.050;2024-02-28T02:05:05;98780.97;;;13.38;50.12
13124;BME280;6627;50.920;12.050;2024-02-28T02:07:35;99028.03;;;15.29;48.94
13124;BME280;6627;50.920;12.050;2024-02-28T02:10:02;99008.31;;;15.23;48.76
13124;BME280;6627;50.920;12.050;2024-02-28T02:12:34;98730.25;;;13.43;48.86
13124;BME280;6627;50.920;12.050;2024-02-28T02:15:21;98881.09;;;14.54;49.02
13124;BME280;6627;50.920;12.050;2024-02-28T02:17:51;99004.59;;;15.36;48.51
13124;BME280;6627;50.920;12.050;2024-02-28T02:20:21;98912.25;;;15.38;47.36
13124;BME280;6627;50.920;12.050;2024-02-28T02:22:52;98910.84;;;15.32;47.60
13124;BME280;6627;50.920;12.050;2024-02-28T02:25:23;98772.13;;;14.11;48.19
13124;BME280;6627;50.920;12.050;2024-02-28T02:27:50;98931.09;;;14.67;48.81
13124;BME280;6627;50.920;12.050;2024-02-28T02:30:17;98988.03;;;15.42;48.14
13124;BME280;6627;50.920;12.050;2024-02-28T02:33:03;99003.94;;;16.16;46.68
13124;BME280;6627;50.920;12.050;2024-02-28T02:35:30;98948.22;;;15.41;47.51
13124;BME280;6627;50.920;12.050;2024-02-28T02:38:01;98956.00;;;15.59;47.15
13124;BME280;6627;50.920;12.050;2024-02-28T02:40:31;98954.81;;;16.07;45.75
13124;BME280;6627;50.920;12.050;2024-02-28T02:42:59;98849.31;;;14.67;47.73
13124;BME280;6627;50.920;12.050;2024-02-28T02:45:28;98882.66;;;14.47;48.55
13124;BME280;6627;50.920;12.050;2024-02-28T02:47:55;99003.03;;;15.74;46.91
13124;BME280;6627;50.920;12.050;2024-02-28T02:50:22;98897.22;;;15.32;46.62
13124;BME280;6627;50.920;12.050;2024-02-28T02:52:50;98878.56;;;15.34;46.15
13124;BME280;6627;50.920;12.050;2024-02-28T02:55:18;98926.88;;;14.78;48.29
13124;BME280;6627;50.920;12.050;2024-02-28T02:57:45;98832.38;;;14.53;47.58
13124;BME280;6627;50.920;12.050;2024-02-28T03:00:13;98929.50;;;14.49;48.79
13124;BME280;6627;50.920;12.050;2024-02-28T03:02:42;98993.69;;;15.36;47.83
13124;BME280;6627;50.920;12.050;2024-02-28T03:05:12;98891.81;;;14.33;48.95
13124;BME280;6627;50.920;12.050;2024-02-28T03:07:39;99040.56;;;15.21;48.75
13124;BME280;6627;50.920;12.050;2024-02-28T03:10:07;99014.81;;;16.46;45.50
13124;BME280;6627;50.920;12.050;2024-02-28T03:12:36;99051.81;;;16.64;45.72
13124;BME280;6627;50.920;12.050;2024-02-28T03:15:05;98848.00;;;14.73;47.11
13124;BME280;6627;50.920;12.050;2024-02-28T03:17:32;98976.66;;;15.31;47.51
13124;BME280;6627;50.920;12.050;2024-02-28T03:20:00;98946.28;;;14.07;50.16
13124;BME280;6627;50.920;12.050;2024-02-28T03:22:29;98923.09;;;14.62;48.21
13124;BME280;6627;50.920;12.050;2024-02-28T03:24:58;98984.16;;;14.78;48.81
13124;BME280;6627;50.920;12.050;2024-02-28T03:27:28;98910.56;;;14.18;49.27
13124;BME280;6627;50.920;12.050;2024-02-28T03:29:57;98896.00;;;14.05;49.27
13124;BME280;6627;50.920;12.050;2024-02-28T03:32:25;98988.81;;;14.69;48.79
13124;BME280;6627;50.920;12.050;2024-02-28T03:34:53;98955.00;;;14.70;48.40
13124;BME280;6627;50.920;12.050;2024-02-28T03:37:20;98994.38;;;15.16;47.55
13124;BME280;6627;50.920;12.050;2024-02-28T03:39:47;99005.69;;;15.35;47.00
13124;BME280;6627;50.920;12.050;2024-02-28T03:42:34;99045.31;;;15.59;47.19
13124;BME280;6627;50.920;12.050;2024-02-28T03:45:06;98939.09;;;14.72;48.09
13124;BME280;6627;50.920;12.050;2024-02-28T03:47:34;98998.03;;;15.20;47.55
13124;BME280;6627;50.920;12.050;2024-02-28T03:50:05;98948.69;;;14.78;47.80
13124;BME280;6627;50.920;12.050;2024-02-28T03:52:35;98939.34;;;15.14;46.70
13124;BME280;6627;50.920;12.050;2024-02-28T03:55:03;98943.56;;;14.33;48.62
13124;BME280;6627;50.920;12.050;2024-02-28T03:57:30;98974.22;;;14.74;48.11
13124;BME280;6627;50.920;12.050;2024-02-28T03:59:57;98928.84;;;14.17;48.77
13124;BME280;6627;50.920;12.050;2024-02-28T04:02:26;98991.59;;;15.33;47.08
13124;BME280;6627;50.920;12.050;2024-02-28T04:04:56;98951.91;;;14.80;47.13
13124;BME280;6627;50.920;12.050;2024-02-28T04:07:26;98960.03;;;15.15;46.48
13124;BME280;6627;50.920;12.050;2024-02-28T04:09:56;99060.63;;;15.25;47.71
13124;BME280;6627;50.920;12.050;2024-02-28T04:12:26;98999.41;;;14.79;48.07
13124;BME280;6627;50.920;12.050;2024-02-28T04:14:56;99013.00;;;15.14;47.37
13124;BME280;6627;50.920;12.050;2024-02-28T04:17:23;98956.00;;;15.21;46.27
13124;BME280;6627;50.920;12.050;2024-02-28T04:19:51;98995.06;;;14.70;48.02
13124;BME280;6627;50.920;12.050;2024-02-28T04:22:19;99055.00;;;15.95;45.71
13124;BME280;6627;50.920;12.050;2024-02-28T04:24:46;98950.00;;;14.37;48.00
13124;BME280;6627;50.920;12.050;2024-02-28T04:27:16;99051.59;;;15.98;45.49
13124;BME280;6627;50.920;12.050;2024-02-28T04:29:46;99056.31;;;16.48;44.47
13124;BME280;6627;50.920;12.050;2024-02-28T04:32:15;99031.72;;;16.18;44.62
13124;BME280;6627;50.920;12.050;2024-02-28T04:34:45;98955.28;;;15.42;45.53
13124;BME280;6627;50.920;12.050;2024-02-28T04:37:15;99029.34;;;15.78;45.50
13124;BME280;6627;50.920;12.050;2024-02-28T04:39:42;99044.78;;;15.74;45.86
13124;BME280;6627;50.920;12.050;2024-02-28T04:42:10;98981.72;;;15.67;45.05
13124;BME280;6627;50.920;12.050;2024-02-28T04:44:37;99106.16;;;16.45;44.73
13124;BME280;6627;50.920;12.050;2024-02-28T04:47:05;99055.28;;;16.31;44.23
13124;BME280;6627;50.920;12.050;2024-02-28T04:49:37;98991.97;;;16.00;44.41
13124;BME280;6627;50.920;12.050;2024-02-28T04:52:07;98984.03;;;16.07;43.86
13124;BME280;6627;50.920;12.050;2024-02-28T04:54:40;98912.94;;;14.88;46.21
13124;BME280;6627;50.920;12.050;2024-02-28T04:57:10;98962.63;;;15.03;46.28
13124;BME280;6627;50.920;12.050;2024-02-28T04:59:37;99015.28;;;15.59;45.95
13124;BME280;6627;50.920;12.050;2024-02-28T05:02:04;98851.44;;;13.92;47.77
13124;BME280;6627;50.920;12.050;2024-02-28T05:04:32;98879.81;;;14.34;46.99
13124;BME280;6627;50.920;12.050;2024-02-28T05:06:59;98965.38;;;14.85;47.04
13124;BME280;6627;50.920;12.050;2024-02-28T05:09:26;98910.25;;;14.45;46.98
13124;BME280;6627;50.920;12.050;2024-02-28T05:11:58;99029.09;;;15.54;46.02
13124;BME280;6627;50.920;12.050;2024-02-28T05:14:28;98993.81;;;15.40;46.05
13124;BME280;6627;50.920;12.050;2024-02-28T05:16:58;99061.16;;;15.74;46.03
13124;BME280;6627;50.920;12.050;2024-02-28T05:19:28;99004.97;;;15.73;45.15
13124;BME280;6627;50.920;12.050;2024-02-28T05:22:14;98967.91;;;15.55;44.80
13124;BME280;6627;50.920;12.050;2024-02-28T05:24:41;98959.75;;;14.99;46.23
13124;BME280;6627;50.920;12.050;2024-02-28T05:27:10;99074.22;;;16.36;44.33
13124;BME280;6627;50.920;12.050;2024-02-28T05:29:38;99028.13;;;15.67;45.44
13124;BME280;6627;50.920;12.050;2024-02-28T05:32:14;98944.53;;;14.89;46.14
13124;BME280;6627;50.920;12.050;2024-02-28T05:34:46;99116.72;;;16.25;45.15
13124;BME280;6627;50.920;12.050;2024-02-28T05:37:17;98937.44;;;15.44;44.52
13124;BME280;6627;50.920;12.050;2024-02-28T05:39:46;99054.19;;;15.94;44.63
13124;BME280;6627;50.920;12.050;2024-02-28T05:42:17;99070.03;;;16.09;44.33
13124;BME280;6627;50.920;12.050;2024-02-28T05:44:48;99052.03;;;15.61;45.47
13124;BME280;6627;50.920;12.050;2024-02-28T05:47:15;99105.13;;;16.58;43.68
13124;BME280;6627;50.920;12.050;2024-02-28T05:49:43;99056.88;;;16.32;43.76
13124;BME280;6627;50.920;12.050;2024-02-28T05:52:10;98936.44;;;15.49;44.28
13124;BME280;6627;50.920;12.050;2024-02-28T05:54:40;98991.00;;;15.57;44.79
13124;BME280;6627;50.920;12.050;2024-02-28T05:57:10;99038.78;;;16.19;43.83
13124;BME280;6627;50.920;12.050;2024-02-28T05:59:38;98922.88;;;14.84;45.65
13124;BME280;6627;50.920;12.050;2024-02-28T06:02:08;99004.56;;;15.83;43.92
13124;BME280;6627;50.920;12.050;2024-02-28T06:04:35;99054.84;;;15.91;44.10
13124;BME280;6627;50.920;12.050;2024-02-28T06:07:03;99058.28;;;16.38;43.31
13124;BME280;6627;50.920;12.050;2024-02-28T06:09:31;98982.72;;;15.83;43.82
13124;BME280;6627;50.920;12.050;2024-02-28T06:11:58;99027.47;;;16.29;43.24
13124;BME280;6627;50.920;12.050;2024-02-28T06:14:27;99087.88;;;17.08;42.12
13124;BME280;6627;50.920;12.050;2024-02-28T06:16:59;99065.25;;;16.99;41.89
13124;BME280;6627;50.920;12.050;2024-02-28T06:19:29;98961.19;;;16.32;42.56
13124;BME280;6627;50.920;12.050;2024-02-28T06:21:56;99014.41;;;16.35;43.22
13124;BME280;6627;50.920;12.050;2024-02-28T06:24:26;98950.00;;;16.04;42.77
13124;BME280;6627;50.920;12.050;2024-02-28T06:26:53;99086.91;;;16.92;42.66
13124;BME280;6627;50.920;12.050;2024-02-28T06:29:21;98909.09;;;15.57;43.90
13124;BME280;6627;50.920;12.050;2024-02-28T06:31:50;98927.50;;;15.39;44.33
13124;BME280;6627;50.920;12.050;2024-02-28T06:34:19;99014.94;;;15.69;44.81
13124;BME280;6627;50.920;12.050;2024-02-28T06:36:48;99011.50;;;16.61;42.59
13124;BME280;6627;50.920;12.050;2024-02-28T06:39:18;99060.72;;;16.61;43.13
13124;BME280;6627;50.920;12.050;2024-02-28T06:41:48;98796.13;;;14.91;43.74
13124;BME280;6627;50.920;12.050;2024-02-28T06:44:20;98964.66;;;15.23;44.87
13124;BME280;6627;50.920;12.050;2024-02-28T06:46:50;98925.28;;;14.77;45.64
13124;BME280;6627;50.920;12.050;2024-02-28T06:49:19;98987.25;;;15.41;44.51
13124;BME280;6627;50.920;12.050;2024-02-28T06:51:46;98887.16;;;14.51;45.50
13124;BME280;6627;50.920;12.050;2024-02-28T06:54:13;99030.72;;;15.93;43.48
13124;BME280;6627;50.920;12.050;2024-02-28T06:56:40;98999.84;;;15.63;44.13
13124;BME280;6627;50.920;12.050;2024-02-28T06:59:11;99011.22;;;15.74;43.99
13124;BME280;6627;50.920;12.050;2024-02-28T07:01:41;99037.66;;;15.91;43.79
13124;BME280;6627;50.920;12.050;2024-02-28T07:04:10;99054.91;;;16.12;43.55
13124;BME280;6627;50.920;12.050;2024-02-28T07:06:41;99080.31;;;16.63;42.81
13124;BME280;6627;50.920;12.050;2024-02-28T07:09:11;98992.47;;;15.93;43.46
13124;BME280;6627;50.920;12.050;2024-02-28T07:11:41;99003.13;;;15.86;43.47
13124;BME280;6627;50.920;12.050;2024-02-28T07:14:08;99037.09;;;15.76;44.20
13124;BME280;6627;50.920;12.050;2024-02-28T07:16:34;99134.06;;;16.59;43.10
13124;BME280;6627;50.920;12.050;2024-02-28T07:19:18;98975.19;;;16.10;42.85
13124;BME280;6627;50.920;12.050;2024-02-28T07:21:48;99044.53;;;16.26;43.01
13124;BME280;6627;50.920;12.050;2024-02-28T07:24:16;99181.00;;;17.20;42.27
13124;BME280;6627;50.920;12.050;2024-02-28T07:26:46;99023.47;;;15.68;44.08
13124;BME280;6627;50.920;12.050;2024-02-28T07:29:15;99093.97;;;16.63;42.66
13124;BME280;6627;50.920;12.050;2024-02-28T07:31:42;98933.47;;;16.01;42.07
13124;BME280;6627;50.920;12.050;2024-02-28T07:34:11;98909.47;;;15.09;43.83
13124;BME280;6627;50.920;12.050;2024-02-28T07:36:38;98988.31;;;15.49;43.73
13124;BME280;6627;50.920;12.050;2024-02-28T07:39:08;99034.16;;;16.11;43.01
13124;BME280;6627;50.920;12.050;2024-02-28T07:41:38;99092.16;;;16.46;42.87
13124;BME280;6627;50.920;12.050;2024-02-28T07:44:10;98979.72;;;16.06;42.36
13124;BME280;6627;50.920;12.050;2024-02-28T07:46:41;99061.38;;;16.58;42.20
13124;BME280;6627;50.920;12.050;2024-02-28T07:49:11;98972.19;;;15.73;42.96
13124;BME280;6627;50.920;12.050;2024-02-28T07:51:40;98995.59;;;16.12;42.50
13124;BME280;6627;50.920;12.050;2024-02-28T07:54:09;98960.22;;;15.86;42.65
13124;BME280;6627;50.920;12.050;2024-02-28T07:56:37;99053.38;;;15.94;43.89
13124;BME280;6627;50.920;12.050;2024-02-28T07:59:04;98915.41;;;15.49;43.02
13124;BME280;6627;50.920;12.050;2024-02-28T08:01:32;99022.09;;;15.82;43.37
13124;BME280;6627;50.920;12.050;2024-02-28T08:03:59;99040.56;;;16.45;42.19
13124;BME280;6627;50.920;12.050;2024-02-28T08:06:30;98977.69;;;15.56;43.23
13124;BME280;6627;50.920;12.050;2024-02-28T08:09:02;98964.00;;;15.73;42.61
13124;BME280;6627;50.920;12.050;2024-02-28T08:11:34;98936.69;;;16.03;40.78
13124;BME280;6627;50.920;12.050;2024-02-28T08:14:04;98901.63;;;16.26;40.33
13124;BME280;6627;50.920;12.050;2024-02-28T08:16:31;99005.53;;;16.59;40.78
13124;BME280;6627;50.920;12.050;2024-02-28T08:18:59;98870.88;;;15.57;42.10
13124;BME280;6627;50.920;12.050;2024-02-28T08:21:26;98941.84;;;15.96;41.78
13124;BME280;6627;50.920;12.050;2024-02-28T08:23:55;98973.22;;;16.40;41.30
13124;BME280;6627;50.920;12.050;2024-02-28T08:26:44;98705.66;;;14.59;42.33
13124;BME280;6627;50.920;12.050;2024-02-28T08:29:12;98805.38;;;15.07;41.92
13124;BME280;6627;50.920;12.050;2024-02-28T08:31:44;98783.34;;;15.12;41.41
13124;BME280;6627;50.920;12.050;2024-02-28T08:34:14;98894.38;;;15.20;42.47
13124;BME280;6627;50.920;12.050;2024-02-28T08:36:43;98861.50;;;15.46;41.49
13124;BME280;6627;50.920;12.050;2024-02-28T08:39:11;98917.34;;;15.49;42.14
13124;BME280;6627;50.920;12.050;2024-02-28T08:41:38;99001.22;;;16.58;40.78
13124;BME280;6627;50.920;12.050;2024-02-28T08:44:07;98833.63;;;15.02;42.60
13124;BME280;6627;50.920;12.050;2024-02-28T08:46:34;99010.19;;;16.37;41.19
13124;BME280;6627;50.920;12.050;2024-02-28T08:49:04;98960.91;;;16.88;39.04
13124;BME280;6627;50.920;12.050;2024-02-28T08:51:32;98879.31;;;16.57;39.07
13124;BME280;6627;50.920;12.050;2024-02-28T08:54:00;98995.31;;;17.10;39.35
13124;BME280;6627;50.920;12.050;2024-02-28T08:56:30;98864.06;;;16.68;38.68
13124;BME280;6627;50.920;12.050;2024-02-28T08:58:58;98882.09;;;16.69;38.98
13124;BME280;6627;50.920;12.050;2024-02-28T09:01:27;98711.09;;;15.39;40.42
13124;BME280;6627;50.920;12.050;2024-02-28T09:03:56;98683.16;;;15.42;39.47
13124;BME280;6627;50.920;12.050;2024-02-28T09:06:24;98684.81;;;14.93;40.81
13124;BME280;6627;50.920;12.050;2024-02-28T09:08:52;98737.66;;;14.32;42.96
13124;BME280;6627;50.920;12.050;2024-02-28T09:11:21;98828.88;;;15.20;41.89
13124;BME280;6627;50.920;12.050;2024-02-28T09:13:51;98906.81;;;16.19;39.96
13124;BME280;6627;50.920;12.050;2024-02-28T09:16:21;98895.63;;;16.11;40.30
13124;BME280;6627;50.920;12.050;2024-02-28T09:18:51;98756.47;;;15.73;39.41
13124;BME280;6627;50.920;12.050;2024-02-28T09:21:18;98854.97;;;15.68;41.15
13124;BME280;6627;50.920;12.050;2024-02-28T09:23:46;98929.34;;;15.95;41.56
13124;BME280;6627;50.920;12.050;2024-02-28T09:26:13;99042.84;;;16.84;40.85
13124;BME280;6627;50.920;12.050;2024-02-28T09:28:41;98828.13;;;16.12;39.87
13124;BME280;6627;50.920;12.050;2024-02-28T09:31:08;98832.78;;;15.91;40.26
13124;BME280;6627;50.920;12.050;2024-02-28T09:33:38;98837.78;;;16.09;39.64
13124;BME280;6627;50.920;12.050;2024-02-28T09:36:07;98943.84;;;16.70;39.36
13124;BME280;6627;50.920;12.050;2024-02-28T09:38:37;99003.19;;;17.81;37.88
13124;BME280;6627;50.920;12.050;2024-02-28T09:41:14;98874.28;;;16.92;38.52
13124;BME280;6627;50.920;12.050;2024-02-28T09:43:42;98780.69;;;15.96;39.66
13124;BME280;6627;50.920;12.050;2024-02-28T09:46:09;98859.63;;;16.30;39.51
13124;BME280;6627;50.920;12.050;2024-02-28T09:48:40;99036.72;;;17.54;38.86
13124;BME280;6627;50.920;12.050;2024-02-28T09:51:10;98938.44;;;17.52;37.60
13124;BME280;6627;50.920;12.050;2024-02-28T09:53:58;98815.09;;;16.75;38.01
13124;BME280;6627;50.920;12.050;2024-02-28T09:56:27;98804.63;;;16.11;39.71
13124;BME280;6627;50.920;12.050;2024-02-28T09:58:58;98815.44;;;16.86;37.74
13124;BME280;6627;50.920;12.050;2024-02-28T10:01:29;98828.41;;;16.31;39.26
13124;BME280;6627;50.920;12.050;2024-02-28T10:04:00;98893.91;;;16.94;38.60
13124;BME280;6627;50.920;12.050;2024-02-28T10:06:31;98808.22;;;16.57;38.37
13124;BME280;6627;50.920;12.050;2024-02-28T10:08:58;98822.75;;;17.31;36.60
13124;BME280;6627;50.920;12.050;2024-02-28T10:11:26;98692.56;;;15.86;38.71
13124;BME280;6627;50.920;12.050;2024-02-28T10:13:53;98700.38;;;15.76;38.67
13124;BME280;6627;50.920;12.050;2024-02-28T10:16:24;98842.47;;;16.75;38.02
13124;BME280;6627;50.920;12.050;2024-02-28T10:18:54;98708.91;;;15.74;38.61
13124;BME280;6627;50.920;12.050;2024-02-28T10:21:24;99077.41;;;19.02;35.45
13124;BME280;6627;50.920;12.050;2024-02-28T10:23:58;98820.38;;;17.42;36.28
13124;BME280;6627;50.920;12.050;2024-02-28T10:26:26;98720.72;;;16.69;37.17
13124;BME280;6627;50.920;12.050;2024-02-28T10:28:53;98635.56;;;15.97;37.73
13124;BME280;6627;50.920;12.050;2024-02-28T10:31:21;99039.00;;;18.50;36.78
13124;BME280;6627;50.920;12.050;2024-02-28T10:33:49;98801.22;;;17.05;37.44
13124;BME280;6627;50.920;12.050;2024-02-28T10:36:17;98884.56;;;17.69;36.89
13124;BME280;6627;50.920;12.050;2024-02-28T10:38:47;98758.13;;;17.02;36.94
13124;BME280;6627;50.920;12.050;2024-02-28T10:41:19;98619.78;;;16.03;37.52
13124;BME280;6627;50.920;12.050;2024-02-28T10:43:50;98704.88;;;16.62;37.18
13124;BME280;6627;50.920;12.050;2024-02-28T10:46:21;98820.16;;;17.10;37.30
13124;BME280;6627;50.920;12.050;2024-02-28T10:48:50;98789.72;;;16.87;37.79
13124;BME280;6627;50.920;12.050;2024-02-28T10:51:23;98689.47;;;16.33;37.43
13124;BME280;6627;50.920;12.050;2024-02-28T10:54:02;99010.03;;;19.05;34.61
13124;BME280;6627;50.920;12.050;2024-02-28T10:56:35;98909.81;;;17.86;36.31
13124;BME280;6627;50.920;12.050;2024-02-28T10:59:25;98879.94;;;17.45;36.78
13124;BME280;6627;50.920;12.050;2024-02-28T11:01:55;98719.38;;;16.75;36.03
13124;BME280;6627;50.920;12.050;2024-02-28T11:04:26;98820.53;;;17.73;35.29
13124;BME280;6627;50.920;12.050;2024-02-28T11:06:56;98928.09;;;18.35;35.00
13124;BME280;6627;50.920;12.050;2024-02-28T11:09:26;98871.16;;;18.16;34.95
13124;BME280;6627;50.920;12.050;2024-02-28T11:11:58;98719.22;;;17.08;36.07
13124;BME280;6627;50.920;12.050;2024-02-28T11:14:25;98852.41;;;18.18;35.01
13124;BME280;6627;50.920;12.050;2024-02-28T11:17:00;98783.66;;;17.71;35.57
13124;BME280;6627;50.920;12.050;2024-02-28T11:19:29;98728.66;;;17.35;35.86
13124;BME280;6627;50.920;12.050;2024-02-28T11:22:00;98809.22;;;17.87;35.52
13124;BME280;6627;50.920;12.050;2024-02-28T11:24:32;98707.88;;;17.47;35.06
13124;BME280;6627;50.920;12.050;2024-02-28T11:27:03;98788.09;;;17.87;34.89
13124;BME280;6627;50.920;12.050;2024-02-28T11:29:34;98766.09;;;18.12;34.25
13124;BME280;6627;50.920;12.050;2024-02-28T11:32:02;98844.16;;;18.90;33.31
13124;BME280;6627;50.920;12.050;2024-02-28T11:34:30;98579.31;;;17.38;34.10
13124;BME280;6627;50.920;12.050;2024-02-28T11:36:58;98884.75;;;19.12;33.76
13124;BME280;6627;50.920;12.050;2024-02-28T11:39:25;98669.16;;;17.88;34.34
13124;BME280;6627;50.920;12.050;2024-02-28T11:41:53;98832.56;;;18.97;33.55
13124;BME280;6627;50.920;12.050;2024-02-28T11:44:25;98722.41;;;18.19;34.49
13124;BME280;6627;50.920;12.050;2024-02-28T11:46:55;98691.63;;;18.10;33.98
13124;BME280;6627;50.920;12.050;2024-02-28T11:49:25;98600.50;;;17.69;34.05
13124;BME280;6627;50.920;12.050;2024-02-28T11:51:55;98574.66;;;16.82;35.69
13124;BME280;6627;50.920;12.050;2024-02-28T11:54:23;98761.50;;;18.16;35.05
13124;BME280;6627;50.920;12.050;2024-02-28T11:56:50;98696.41;;;18.45;33.64
13124;BME280;6627;50.920;12.050;2024-02-28T11:59:17;98929.69;;;20.03;32.69
13124;BME280;6627;50.920;12.050;2024-02-28T12:01:46;98840.94;;;19.86;31.66
13124;BME280;6627;50.920;12.050;2024-02-28T12:04:14;98547.78;;;17.88;33.22
13124;BME280;6627;50.920;12.050;2024-02-28T12:06:44;98843.81;;;19.74;32.49
13124;BME280;6627;50.920;12.050;2024-02-28T12:09:14;98754.97;;;19.51;32.10
13124;BME280;6627;50.920;12.050;2024-02-28T12:11:46;98781.44;;;19.59;32.35
13124;BME280;6627;50.920;12.050;2024-02-28T12:14:16;98697.69;;;19.14;32.59
13124;BME280;6627;50.920;12.050;2024-02-28T12:16:48;98570.22;;;18.25;32.71
13124;BME280;6627;50.920;12.050;2024-02-28T12:19:15;98586.59;;;18.06;33.86
13124;BME280;6627;50.920;12.050;2024-02-28T12:21:46;98936.69;;;20.74;31.70
13124;BME280;6627;50.920;12.050;2024-02-28T12:24:13;98669.97;;;19.58;31.49
13124;BME280;6627;50.920;12.050;2024-02-28T12:26:51;98852.94;;;20.75;31.09
13124;BME280;6627;50.920;12.050;2024-02-28T12:29:21;98874.00;;;21.10;30.58
13124;BME280;6627;50.920;12.050;2024-02-28T12:31:51;98766.09;;;20.55;30.86
13124;BME280;6627;50.920;12.050;2024-02-28T12:34:18;98523.00;;;19.06;31.55
13124;BME280;6627;50.920;12.050;2024-02-28T12:36:45;98661.34;;;19.59;32.12
13124;BME280;6627;50.920;12.050;2024-02-28T12:39:12;98477.72;;;18.77;31.86
13124;BME280;6627;50.920;12.050;2024-02-28T12:41:40;98579.63;;;18.95;32.79
13124;BME280;6627;50.920;12.050;2024-02-28T12:44:08;98719.75;;;20.57;30.63
13124;BME280;6627;50.920;12.050;2024-02-28T12:46:36;98728.38;;;20.55;30.78
13124;BME280;6627;50.920;12.050;2024-02-28T12:49:07;98748.28;;;20.72;30.60
13124;BME280;6627;50.920;12.050;2024-02-28T12:51:41;98696.69;;;20.19;31.21
13124;BME280;6627;50.920;12.050;2024-02-28T12:54:10;98522.25;;;19.28;31.50
13124;BME280;6627;50.920;12.050;2024-02-28T12:56:41;98616.31;;;19.83;31.26
13124;BME280;6627;50.920;12.050;2024-02-28T12:59:12;98557.13;;;19.89;30.34
13124;BME280;6627;50.920;12.050;2024-02-28T13:01:40;98575.31;;;19.75;30.85
13124;BME280;6627;50.920;12.050;2024-02-28T13:04:08;98655.66;;;20.10;31.24
13124;BME280;6627;50.920;12.050;2024-02-28T13:06:36;98472.44;;;19.30;30.88
13124;BME280;6627;50.920;12.050;2024-02-28T13:09:03;98501.31;;;19.20;31.59
13124;BME280;6627;50.920;12.050;2024-02-28T13:11:34;98569.59;;;19.22;31.95